sensor_id;sensor_type;location;lat;lon;timestamp;P1;durP1;ratioP1;P2;durP2;ratioP2
67508;SDS011;54354;44.724;11.284;2022-10-16T00:01:26;42.03;;;24.60;;
67508;SDS011;54354;44.724;11.284;2022-10-16T00:03:54;37.05;;;22.25;;
67508;SDS011;54354;44.724;11.284;2022-10-16T00:06:20;36.97;;;23.80;;
67508;SDS011;54354;44.724;11.284;2022-10-16T00:08:47;33.95;;;23.02;;
67508;SDS011;54354;44.724;11.284;2022-10-16T00:11:17;37.47;;;22.55;;
67508;SDS011;54354;44.724;11.284;2022-10-16T00:13:45;36.03;;;23.65;;
67508;SDS011;54354;44.724;11.284;2022-10-16T00:16:13;42.35;;;25.63;;
67508;SDS011;54354;44.724;11.284;2022-10-16T00:18:40;37.08;;;23.10;;
67508;SDS011;54354;44.724;11.284;2022-10-16T00:21:10;32.03;;;23.10;;
67508;SDS011;54354;44.724;11.284;2022-10-16T00:23:37;36.75;;;23.83;;
67508;SDS011;54354;44.724;11.284;2022-10-16T00:26:05;35.35;;;22.55;;
67508;SDS011;54354;44.724;11.284;2022-10-16T00:28:32;33.97;;;22.50;;
67508;SDS011;54354;44.724;11.284;2022-10-16T00:30:58;34.55;;;22.98;;
67508;SDS011;54354;44.724;11.284;2022-10-16T00:33:24;35.72;;;21.83;;
67508;SDS011;54354;44.724;11.284;2022-10-16T00:35:49;34.53;;;22.17;;
67508;SDS011;54354;44.724;11.284;2022-10-16T00:38:15;31.75;;;22.67;;
67508;SDS011;54354;44.724;11.284;2022-10-16T00:40:41;35.60;;;20.90;;
67508;SDS011;54354;44.724;11.284;2022-10-16T00:43:14;32.00;;;19.83;;
67508;SDS011;54354;44.724;11.284;2022-10-16T00:45:57;30.58;;;20.05;;
67508;SDS011;54354;44.724;11.284;2022-10-16T01:04:30;27.13;;;17.83;;
67508;SDS011;54354;44.724;11.284;2022-10-16T01:13:07;26.77;;;18.45;;
67508;SDS011;54354;44.724;11.284;2022-10-16T01:15:37;29.15;;;18.40;;
67508;SDS011;54354;44.724;11.284;2022-10-16T01:18:23;24.00;;;17.42;;
67508;SDS011;54354;44.724;11.284;2022-10-16T01:20:56;28.30;;;17.83;;
67508;SDS011;54354;44.724;11.284;2022-10-16T01:29:39;25.33;;;17.45;;
67508;SDS011;54354;44.724;11.284;2022-10-16T01:34:54;25.48;;;18.48;;
67508;SDS011;54354;44.724;11.284;2022-10-16T01:37:27;24.30;;;17.45;;
67508;SDS011;54354;44.724;11.284;2022-10-16T01:39:58;27.23;;;17.05;;
67508;SDS011;54354;44.724;11.284;2022-10-16T01:42:27;27.33;;;17.77;;
67508;SDS011;54354;44.724;11.284;2022-10-16T01:44:58;26.17;;;17.85;;
67508;SDS011;54354;44.724;11.284;2022-10-16T01:47:25;34.65;;;18.75;;
67508;SDS011;54354;44.724;11.284;2022-10-16T01:49:52;24.08;;;17.73;;
67508;SDS011;54354;44.724;11.284;2022-10-16T01:52:21;26.35;;;17.27;;
67508;SDS011;54354;44.724;11.284;2022-10-16T01:54:50;24.73;;;18.38;;
67508;SDS011;54354;44.724;11.284;2022-10-16T01:57:19;27.85;;;18.95;;
67508;SDS011;54354;44.724;11.284;2022-10-16T01:59:49;31.10;;;19.08;;
67508;SDS011;54354;44.724;11.284;2022-10-16T02:02:20;31.15;;;19.85;;
67508;SDS011;54354;44.724;11.284;2022-10-16T02:04:58;32.83;;;20.75;;
67508;SDS011;54354;44.724;11.284;2022-10-16T02:07:29;38.00;;;21.88;;
67508;SDS011;54354;44.724;11.284;2022-10-16T02:09:55;32.13;;;21.02;;
67508;SDS011;54354;44.724;11.284;2022-10-16T02:12:25;32.40;;;20.70;;
67508;SDS011;54354;44.724;11.284;2022-10-16T02:14:53;32.85;;;20.00;;
67508;SDS011;54354;44.724;11.284;2022-10-16T02:17:19;24.58;;;17.30;;
67508;SDS011;54354;44.724;11.284;2022-10-16T02:19:46;29.38;;;20.45;;
67508;SDS011;54354;44.724;11.284;2022-10-16T02:22:27;30.48;;;21.63;;
67508;SDS011;54354;44.724;11.284;2022-10-16T02:24:58;32.13;;;21.10;;
67508;SDS011;54354;44.724;11.284;2022-10-16T02:32:57;29.98;;;21.20;;
67508;SDS011;54354;44.724;11.284;2022-10-16T02:35:25;28.88;;;21.20;;
67508;SDS011;54354;44.724;11.284;2022-10-16T02:37:52;36.03;;;21.58;;
67508;SDS011;54354;44.724;11.284;2022-10-16T02:40:19;34.05;;;22.77;;
67508;SDS011;54354;44.724;11.284;2022-10-16T02:42:49;32.20;;;20.65;;
67508;SDS011;54354;44.724;11.284;2022-10-16T02:45:16;31.77;;;20.45;;
67508;SDS011;54354;44.724;11.284;2022-10-16T02:47:42;31.02;;;21.27;;
67508;SDS011;54354;44.724;11.284;2022-10-16T02:50:08;28.45;;;20.40;;
67508;SDS011;54354;44.724;11.284;2022-10-16T02:52:33;28.30;;;19.80;;
67508;SDS011;54354;44.724;11.284;2022-10-16T02:54:59;28.58;;;19.02;;
67508;SDS011;54354;44.724;11.284;2022-10-16T02:57:24;29.38;;;19.75;;
67508;SDS011;54354;44.724;11.284;2022-10-16T02:59:50;28.52;;;19.70;;
67508;SDS011;54354;44.724;11.284;2022-10-16T03:02:15;29.45;;;19.67;;
67508;SDS011;54354;44.724;11.284;2022-10-16T03:04:41;28.13;;;19.85;;
67508;SDS011;54354;44.724;11.284;2022-10-16T03:07:06;28.10;;;19.88;;
67508;SDS011;54354;44.724;11.284;2022-10-16T03:09:32;28.00;;;19.08;;
67508;SDS011;54354;44.724;11.284;2022-10-16T03:11:58;33.13;;;20.13;;
67508;SDS011;54354;44.724;11.284;2022-10-16T03:14:23;32.53;;;20.42;;
67508;SDS011;54354;44.724;11.284;2022-10-16T03:16:49;27.70;;;19.92;;
67508;SDS011;54354;44.724;11.284;2022-10-16T03:19:15;30.77;;;20.65;;
67508;SDS011;54354;44.724;11.284;2022-10-16T03:21:42;29.10;;;20.20;;
67508;SDS011;54354;44.724;11.284;2022-10-16T03:24:07;30.75;;;20.50;;
67508;SDS011;54354;44.724;11.284;2022-10-16T03:26:33;26.40;;;18.67;;
67508;SDS011;54354;44.724;11.284;2022-10-16T03:28:58;29.38;;;20.92;;
67508;SDS011;54354;44.724;11.284;2022-10-16T03:31:24;27.25;;;19.67;;
67508;SDS011;54354;44.724;11.284;2022-10-16T03:33:49;31.17;;;19.48;;
67508;SDS011;54354;44.724;11.284;2022-10-16T03:36:15;36.05;;;21.23;;
67508;SDS011;54354;44.724;11.284;2022-10-16T03:38:40;33.25;;;20.50;;
67508;SDS011;54354;44.724;11.284;2022-10-16T03:41:06;29.05;;;20.80;;
67508;SDS011;54354;44.724;11.284;2022-10-16T03:43:33;29.92;;;20.05;;
67508;SDS011;54354;44.724;11.284;2022-10-16T03:45:58;28.30;;;19.55;;
67508;SDS011;54354;44.724;11.284;2022-10-16T03:48:24;27.55;;;19.42;;
67508;SDS011;54354;44.724;11.284;2022-10-16T03:50:49;26.65;;;18.90;;
67508;SDS011;54354;44.724;11.284;2022-10-16T03:53:16;29.02;;;19.92;;
67508;SDS011;54354;44.724;11.284;2022-10-16T03:55:43;27.02;;;19.30;;
67508;SDS011;54354;44.724;11.284;2022-10-16T03:58:08;28.92;;;18.75;;
67508;SDS011;54354;44.724;11.284;2022-10-16T04:00:34;27.85;;;17.73;;
67508;SDS011;54354;44.724;11.284;2022-10-16T04:03:00;26.52;;;17.45;;
67508;SDS011;54354;44.724;11.284;2022-10-16T04:05:26;23.45;;;17.77;;
67508;SDS011;54354;44.724;11.284;2022-10-16T04:07:51;27.45;;;18.23;;
67508;SDS011;54354;44.724;11.284;2022-10-16T04:10:17;24.15;;;16.83;;
67508;SDS011;54354;44.724;11.284;2022-10-16T04:12:43;28.33;;;16.63;;
67508;SDS011;54354;44.724;11.284;2022-10-16T04:15:08;25.20;;;17.05;;
67508;SDS011;54354;44.724;11.284;2022-10-16T04:17:35;22.67;;;15.70;;
67508;SDS011;54354;44.724;11.284;2022-10-16T04:20:00;20.77;;;16.17;;
67508;SDS011;54354;44.724;11.284;2022-10-16T04:22:26;21.42;;;15.43;;
67508;SDS011;54354;44.724;11.284;2022-10-16T04:24:51;19.70;;;15.65;;
67508;SDS011;54354;44.724;11.284;2022-10-16T04:27:17;21.30;;;15.45;;
67508;SDS011;54354;44.724;11.284;2022-10-16T04:29:42;19.70;;;15.75;;
67508;SDS011;54354;44.724;11.284;2022-10-16T04:32:11;22.48;;;15.45;;
67508;SDS011;54354;44.724;11.284;2022-10-16T04:34:36;21.70;;;15.60;;
67508;SDS011;54354;44.724;11.284;2022-10-16T04:37:04;21.02;;;14.52;;
67508;SDS011;54354;44.724;11.284;2022-10-16T04:39:29;22.13;;;15.10;;
67508;SDS011;54354;44.724;11.284;2022-10-16T04:41:55;22.30;;;15.18;;
67508;SDS011;54354;44.724;11.284;2022-10-16T04:44:20;22.60;;;15.30;;
67508;SDS011;54354;44.724;11.284;2022-10-16T04:46:46;19.20;;;15.32;;
67508;SDS011;54354;44.724;11.284;2022-10-16T04:49:12;22.73;;;15.18;;
67508;SDS011;54354;44.724;11.284;2022-10-16T04:51:38;23.88;;;14.57;;
67508;SDS011;54354;44.724;11.284;2022-10-16T04:54:03;20.42;;;14.48;;
67508;SDS011;54354;44.724;11.284;2022-10-16T04:56:29;20.23;;;14.30;;
67508;SDS011;54354;44.724;11.284;2022-10-16T04:58:54;18.15;;;14.02;;
67508;SDS011;54354;44.724;11.284;2022-10-16T05:01:20;21.92;;;14.70;;
67508;SDS011;54354;44.724;11.284;2022-10-16T05:03:45;21.35;;;13.70;;
67508;SDS011;54354;44.724;11.284;2022-10-16T05:06:11;25.80;;;14.17;;
67508;SDS011;54354;44.724;11.284;2022-10-16T05:08:36;17.50;;;13.52;;
67508;SDS011;54354;44.724;11.284;2022-10-16T05:11:02;21.52;;;13.98;;
67508;SDS011;54354;44.724;11.284;2022-10-16T05:13:27;17.88;;;14.05;;
67508;SDS011;54354;44.724;11.284;2022-10-16T05:15:53;17.30;;;14.38;;
67508;SDS011;54354;44.724;11.284;2022-10-16T05:18:18;22.33;;;14.45;;
67508;SDS011;54354;44.724;11.284;2022-10-16T05:20:44;18.27;;;13.95;;
67508;SDS011;54354;44.724;11.284;2022-10-16T05:23:09;21.58;;;13.95;;
67508;SDS011;54354;44.724;11.284;2022-10-16T05:25:36;19.65;;;14.27;;
67508;SDS011;54354;44.724;11.284;2022-10-16T05:28:02;18.95;;;14.23;;
67508;SDS011;54354;44.724;11.284;2022-10-16T05:30:28;20.35;;;14.52;;
67508;SDS011;54354;44.724;11.284;2022-10-16T05:32:53;21.27;;;15.00;;
67508;SDS011;54354;44.724;11.284;2022-10-16T05:35:19;23.17;;;13.75;;
67508;SDS011;54354;44.724;11.284;2022-10-16T05:37:45;21.30;;;14.32;;
67508;SDS011;54354;44.724;11.284;2022-10-16T05:40:11;20.83;;;14.63;;
67508;SDS011;54354;44.724;11.284;2022-10-16T05:42:38;23.58;;;14.65;;
67508;SDS011;54354;44.724;11.284;2022-10-16T05:45:05;21.00;;;14.63;;
67508;SDS011;54354;44.724;11.284;2022-10-16T05:47:33;20.88;;;15.10;;
67508;SDS011;54354;44.724;11.284;2022-10-16T05:49:59;22.27;;;15.00;;
67508;SDS011;54354;44.724;11.284;2022-10-16T05:52:26;18.88;;;14.75;;
67508;SDS011;54354;44.724;11.284;2022-10-16T05:54:52;27.55;;;15.88;;
67508;SDS011;54354;44.724;11.284;2022-10-16T05:57:17;18.65;;;14.50;;
67508;SDS011;54354;44.724;11.284;2022-10-16T05:59:43;24.02;;;14.80;;
67508;SDS011;54354;44.724;11.284;2022-10-16T06:02:11;19.38;;;14.55;;
67508;SDS011;54354;44.724;11.284;2022-10-16T06:04:38;22.60;;;15.17;;
67508;SDS011;54354;44.724;11.284;2022-10-16T06:07:03;20.95;;;15.73;;
67508;SDS011;54354;44.724;11.284;2022-10-16T06:09:29;20.50;;;15.05;;
67508;SDS011;54354;44.724;11.284;2022-10-16T06:11:54;18.75;;;13.93;;
67508;SDS011;54354;44.724;11.284;2022-10-16T06:14:20;19.25;;;14.40;;
67508;SDS011;54354;44.724;11.284;2022-10-16T06:16:45;21.75;;;14.55;;
67508;SDS011;54354;44.724;11.284;2022-10-16T06:19:11;22.38;;;14.57;;
67508;SDS011;54354;44.724;11.284;2022-10-16T06:21:36;21.85;;;13.77;;
67508;SDS011;54354;44.724;11.284;2022-10-16T06:24:02;28.13;;;14.80;;
67508;SDS011;54354;44.724;11.284;2022-10-16T06:26:29;22.52;;;14.75;;
67508;SDS011;54354;44.724;11.284;2022-10-16T06:28:55;21.48;;;14.25;;
67508;SDS011;54354;44.724;11.284;2022-10-16T06:31:22;22.67;;;14.68;;
67508;SDS011;54354;44.724;11.284;2022-10-16T06:33:52;22.38;;;14.13;;
67508;SDS011;54354;44.724;11.284;2022-10-16T06:36:18;23.70;;;14.90;;
67508;SDS011;54354;44.724;11.284;2022-10-16T06:38:45;21.65;;;13.98;;
67508;SDS011;54354;44.724;11.284;2022-10-16T06:41:12;17.10;;;13.95;;
67508;SDS011;54354;44.724;11.284;2022-10-16T06:43:40;20.45;;;13.70;;
67508;SDS011;54354;44.724;11.284;2022-10-16T06:46:06;15.57;;;12.30;;
67508;SDS011;54354;44.724;11.284;2022-10-16T06:48:34;19.42;;;14.00;;
67508;SDS011;54354;44.724;11.284;2022-10-16T06:51:01;21.67;;;13.40;;
67508;SDS011;54354;44.724;11.284;2022-10-16T06:53:37;17.10;;;12.48;;
67508;SDS011;54354;44.724;11.284;2022-10-16T06:58:38;17.23;;;11.20;;
67508;SDS011;54354;44.724;11.284;2022-10-16T07:01:04;16.67;;;12.43;;
67508;SDS011;54354;44.724;11.284;2022-10-16T07:03:30;20.63;;;12.05;;
67508;SDS011;54354;44.724;11.284;2022-10-16T07:05:56;29.30;;;11.82;;
67508;SDS011;54354;44.724;11.284;2022-10-16T07:08:21;20.05;;;12.20;;
67508;SDS011;54354;44.724;11.284;2022-10-16T07:10:47;18.58;;;12.02;;
67508;SDS011;54354;44.724;11.284;2022-10-16T07:13:13;16.00;;;12.43;;
67508;SDS011;54354;44.724;11.284;2022-10-16T07:15:39;15.77;;;11.52;;
67508;SDS011;54354;44.724;11.284;2022-10-16T07:18:06;20.73;;;12.32;;
67508;SDS011;54354;44.724;11.284;2022-10-16T07:20:32;16.52;;;11.52;;
67508;SDS011;54354;44.724;11.284;2022-10-16T07:22:58;20.92;;;12.77;;
67508;SDS011;54354;44.724;11.284;2022-10-16T07:25:23;18.08;;;12.77;;
67508;SDS011;54354;44.724;11.284;2022-10-16T07:27:49;20.63;;;13.00;;
67508;SDS011;54354;44.724;11.284;2022-10-16T07:30:14;19.02;;;12.75;;
67508;SDS011;54354;44.724;11.284;2022-10-16T07:32:40;19.83;;;13.30;;
67508;SDS011;54354;44.724;11.284;2022-10-16T07:35:05;20.15;;;13.90;;
67508;SDS011;54354;44.724;11.284;2022-10-16T07:37:31;16.38;;;14.07;;
67508;SDS011;54354;44.724;11.284;2022-10-16T07:39:57;21.98;;;15.05;;
67508;SDS011;54354;44.724;11.284;2022-10-16T07:42:22;26.80;;;17.13;;
67508;SDS011;54354;44.724;11.284;2022-10-16T07:44:48;21.80;;;15.70;;
67508;SDS011;54354;44.724;11.284;2022-10-16T07:47:13;22.70;;;15.40;;
67508;SDS011;54354;44.724;11.284;2022-10-16T07:49:39;28.85;;;17.90;;
67508;SDS011;54354;44.724;11.284;2022-10-16T07:52:05;27.42;;;17.20;;
67508;SDS011;54354;44.724;11.284;2022-10-16T07:54:30;37.35;;;23.38;;
67508;SDS011;54354;44.724;11.284;2022-10-16T07:56:56;35.13;;;22.95;;
67508;SDS011;54354;44.724;11.284;2022-10-16T07:59:21;37.15;;;23.42;;
67508;SDS011;54354;44.724;11.284;2022-10-16T08:01:48;34.80;;;25.27;;
67508;SDS011;54354;44.724;11.284;2022-10-16T08:04:14;35.30;;;25.02;;
67508;SDS011;54354;44.724;11.284;2022-10-16T08:06:40;39.92;;;24.23;;
67508;SDS011;54354;44.724;11.284;2022-10-16T08:09:07;44.00;;;26.48;;
67508;SDS011;54354;44.724;11.284;2022-10-16T08:11:33;40.83;;;23.90;;
67508;SDS011;54354;44.724;11.284;2022-10-16T08:13:59;41.50;;;24.70;;
67508;SDS011;54354;44.724;11.284;2022-10-16T08:16:25;38.47;;;25.92;;
67508;SDS011;54354;44.724;11.284;2022-10-16T08:18:50;49.92;;;27.13;;
67508;SDS011;54354;44.724;11.284;2022-10-16T08:21:17;39.25;;;26.00;;
67508;SDS011;54354;44.724;11.284;2022-10-16T08:23:45;47.30;;;29.90;;
67508;SDS011;54354;44.724;11.284;2022-10-16T08:26:11;50.25;;;30.20;;
67508;SDS011;54354;44.724;11.284;2022-10-16T08:28:37;50.63;;;33.92;;
67508;SDS011;54354;44.724;11.284;2022-10-16T08:31:07;50.13;;;30.90;;
67508;SDS011;54354;44.724;11.284;2022-10-16T08:33:34;61.28;;;37.65;;
67508;SDS011;54354;44.724;11.284;2022-10-16T08:36:00;76.20;;;43.30;;
67508;SDS011;54354;44.724;11.284;2022-10-16T08:38:27;73.85;;;42.72;;
67508;SDS011;54354;44.724;11.284;2022-10-16T08:40:52;81.13;;;43.85;;
67508;SDS011;54354;44.724;11.284;2022-10-16T08:48:52;58.70;;;36.10;;
67508;SDS011;54354;44.724;11.284;2022-10-16T08:51:21;66.55;;;37.67;;
67508;SDS011;54354;44.724;11.284;2022-10-16T08:53:58;60.47;;;36.15;;
67508;SDS011;54354;44.724;11.284;2022-10-16T08:56:28;62.92;;;35.13;;
67508;SDS011;54354;44.724;11.284;2022-10-16T08:58:54;60.90;;;36.05;;
67508;SDS011;54354;44.724;11.284;2022-10-16T09:01:21;59.30;;;37.28;;
67508;SDS011;54354;44.724;11.284;2022-10-16T09:14:38;54.20;;;35.38;;
67508;SDS011;54354;44.724;11.284;2022-10-16T09:22:35;60.38;;;35.88;;
67508;SDS011;54354;44.724;11.284;2022-10-16T09:25:00;56.05;;;35.50;;
67508;SDS011;54354;44.724;11.284;2022-10-16T09:27:36;57.15;;;35.15;;
67508;SDS011;54354;44.724;11.284;2022-10-16T09:30:10;62.00;;;35.25;;
67508;SDS011;54354;44.724;11.284;2022-10-16T09:32:37;53.90;;;35.28;;
67508;SDS011;54354;44.724;11.284;2022-10-16T09:35:04;55.85;;;35.80;;
67508;SDS011;54354;44.724;11.284;2022-10-16T09:37:38;60.35;;;36.58;;
67508;SDS011;54354;44.724;11.284;2022-10-16T09:40:05;58.60;;;36.42;;
67508;SDS011;54354;44.724;11.284;2022-10-16T09:42:32;52.17;;;35.47;;
67508;SDS011;54354;44.724;11.284;2022-10-16T09:45:00;52.78;;;33.47;;
67508;SDS011;54354;44.724;11.284;2022-10-16T09:47:27;54.97;;;33.53;;
67508;SDS011;54354;44.724;11.284;2022-10-16T09:50:02;57.53;;;34.88;;
67508;SDS011;54354;44.724;11.284;2022-10-16T09:52:31;56.30;;;34.50;;
67508;SDS011;54354;44.724;11.284;2022-10-16T09:54:59;52.53;;;33.78;;
67508;SDS011;54354;44.724;11.284;2022-10-16T09:57:26;53.78;;;31.63;;
67508;SDS011;54354;44.724;11.284;2022-10-16T09:59:55;54.78;;;33.10;;
67508;SDS011;54354;44.724;11.284;2022-10-16T10:02:26;50.50;;;31.23;;
67508;SDS011;54354;44.724;11.284;2022-10-16T10:04:55;54.38;;;32.88;;
67508;SDS011;54354;44.724;11.284;2022-10-16T10:07:23;46.28;;;32.13;;
67508;SDS011;54354;44.724;11.284;2022-10-16T10:09:51;50.85;;;30.77;;
67508;SDS011;54354;44.724;11.284;2022-10-16T10:14:48;50.05;;;31.73;;
67508;SDS011;54354;44.724;11.284;2022-10-16T10:17:19;37.70;;;26.17;;
67508;SDS011;54354;44.724;11.284;2022-10-16T10:22:30;49.95;;;30.45;;
67508;SDS011;54354;44.724;11.284;2022-10-16T10:27:53;33.67;;;22.92;;
67508;SDS011;54354;44.724;11.284;2022-10-16T10:32:58;37.88;;;23.42;;
67508;SDS011;54354;44.724;11.284;2022-10-16T10:36:11;37.25;;;23.77;;
67508;SDS011;54354;44.724;11.284;2022-10-16T10:38:53;35.92;;;24.10;;
67508;SDS011;54354;44.724;11.284;2022-10-16T10:46:45;33.63;;;22.38;;
67508;SDS011;54354;44.724;11.284;2022-10-16T10:49:23;33.67;;;21.38;;
67508;SDS011;54354;44.724;11.284;2022-10-16T10:52:06;30.52;;;19.60;;
67508;SDS011;54354;44.724;11.284;2022-10-16T11:00:35;33.47;;;23.52;;
67508;SDS011;54354;44.724;11.284;2022-10-16T11:05:56;40.95;;;25.23;;
67508;SDS011;54354;44.724;11.284;2022-10-16T11:08:27;38.22;;;25.38;;
67508;SDS011;54354;44.724;11.284;2022-10-16T11:11:03;40.15;;;22.63;;
67508;SDS011;54354;44.724;11.284;2022-10-16T11:13:35;24.13;;;18.13;;
67508;SDS011;54354;44.724;11.284;2022-10-16T11:16:07;18.63;;;13.13;;
67508;SDS011;54354;44.724;11.284;2022-10-16T11:18:47;16.30;;;12.30;;
67508;SDS011;54354;44.724;11.284;2022-10-16T11:21:17;24.60;;;14.60;;
67508;SDS011;54354;44.724;11.284;2022-10-16T11:26:21;17.52;;;13.75;;
67508;SDS011;54354;44.724;11.284;2022-10-16T11:28:52;25.38;;;14.05;;
67508;SDS011;54354;44.724;11.284;2022-10-16T11:31:36;21.15;;;13.10;;
67508;SDS011;54354;44.724;11.284;2022-10-16T11:34:22;21.90;;;12.25;;
67508;SDS011;54354;44.724;11.284;2022-10-16T11:39:27;21.13;;;11.60;;
67508;SDS011;54354;44.724;11.284;2022-10-16T11:55:50;17.45;;;10.18;;
67508;SDS011;54354;44.724;11.284;2022-10-16T11:58:27;15.85;;;10.13;;
67508;SDS011;54354;44.724;11.284;2022-10-16T12:01:00;15.70;;;11.30;;
67508;SDS011;54354;44.724;11.284;2022-10-16T12:08:37;18.88;;;12.40;;
67508;SDS011;54354;44.724;11.284;2022-10-16T12:11:45;23.10;;;13.07;;
67508;SDS011;54354;44.724;11.284;2022-10-16T12:13:52;19.75;;;12.68;;
67508;SDS011;54354;44.724;11.284;2022-10-16T12:16:31;17.33;;;11.97;;
67508;SDS011;54354;44.724;11.284;2022-10-16T12:19:09;20.20;;;12.52;;
67508;SDS011;54354;44.724;11.284;2022-10-16T12:21:37;16.63;;;10.80;;
67508;SDS011;54354;44.724;11.284;2022-10-16T12:24:03;14.90;;;10.23;;
67508;SDS011;54354;44.724;11.284;2022-10-16T12:26:32;15.32;;;10.25;;
67508;SDS011;54354;44.724;11.284;2022-10-16T12:29:44;21.42;;;11.07;;
67508;SDS011;54354;44.724;11.284;2022-10-16T12:31:59;15.32;;;10.10;;
67508;SDS011;54354;44.724;11.284;2022-10-16T12:37:08;14.52;;;9.73;;
67508;SDS011;54354;44.724;11.284;2022-10-16T12:39:38;15.80;;;10.27;;
67508;SDS011;54354;44.724;11.284;2022-10-16T12:42:05;13.07;;;9.18;;
67508;SDS011;54354;44.724;11.284;2022-10-16T12:44:44;12.45;;;7.93;;
67508;SDS011;54354;44.724;11.284;2022-10-16T12:47:19;17.70;;;9.20;;
67508;SDS011;54354;44.724;11.284;2022-10-16T12:49:53;14.85;;;9.77;;
67508;SDS011;54354;44.724;11.284;2022-10-16T12:52:34;11.95;;;8.05;;
67508;SDS011;54354;44.724;11.284;2022-10-16T12:55:02;11.45;;;7.70;;
67508;SDS011;54354;44.724;11.284;2022-10-16T13:00:09;11.57;;;8.55;;
67508;SDS011;54354;44.724;11.284;2022-10-16T13:19:29;10.13;;;7.10;;
67508;SDS011;54354;44.724;11.284;2022-10-16T13:30:22;11.52;;;7.47;;
67508;SDS011;54354;44.724;11.284;2022-10-16T13:32:53;12.88;;;8.27;;
67508;SDS011;54354;44.724;11.284;2022-10-16T13:35:48;11.38;;;7.47;;
67508;SDS011;54354;44.724;11.284;2022-10-16T13:38:23;13.82;;;7.53;;
67508;SDS011;54354;44.724;11.284;2022-10-16T13:40:57;13.23;;;8.45;;
67508;SDS011;54354;44.724;11.284;2022-10-16T13:43:35;17.25;;;8.30;;
67508;SDS011;54354;44.724;11.284;2022-10-16T13:46:06;15.30;;;8.00;;
67508;SDS011;54354;44.724;11.284;2022-10-16T13:48:36;10.18;;;6.90;;
67508;SDS011;54354;44.724;11.284;2022-10-16T13:51:03;14.75;;;7.15;;
67508;SDS011;54354;44.724;11.284;2022-10-16T13:53:30;10.52;;;7.07;;
67508;SDS011;54354;44.724;11.284;2022-10-16T13:55:57;13.82;;;7.35;;
67508;SDS011;54354;44.724;11.284;2022-10-16T13:58:22;13.85;;;7.50;;
67508;SDS011;54354;44.724;11.284;2022-10-16T14:00:58;11.32;;;8.75;;
67508;SDS011;54354;44.724;11.284;2022-10-16T14:03:26;12.00;;;7.93;;
67508;SDS011;54354;44.724;11.284;2022-10-16T14:05:54;16.70;;;8.18;;
67508;SDS011;54354;44.724;11.284;2022-10-16T14:08:22;13.55;;;9.05;;
67508;SDS011;54354;44.724;11.284;2022-10-16T14:10:51;10.52;;;7.82;;
67508;SDS011;54354;44.724;11.284;2022-10-16T14:13:20;16.98;;;8.30;;
67508;SDS011;54354;44.724;11.284;2022-10-16T14:16:00;9.57;;;7.65;;
67508;SDS011;54354;44.724;11.284;2022-10-16T14:18:29;11.73;;;6.70;;
67508;SDS011;54354;44.724;11.284;2022-10-16T14:20:55;9.20;;;7.05;;
67508;SDS011;54354;44.724;11.284;2022-10-16T14:23:29;12.25;;;7.10;;
67508;SDS011;54354;44.724;11.284;2022-10-16T14:28:36;10.10;;;6.78;;
67508;SDS011;54354;44.724;11.284;2022-10-16T14:31:03;11.88;;;7.50;;
67508;SDS011;54354;44.724;11.284;2022-10-16T14:33:49;11.50;;;7.38;;
67508;SDS011;54354;44.724;11.284;2022-10-16T14:36:15;12.32;;;6.50;;
67508;SDS011;54354;44.724;11.284;2022-10-16T14:38:52;10.82;;;7.75;;
67508;SDS011;54354;44.724;11.284;2022-10-16T14:41:24;16.42;;;7.35;;
67508;SDS011;54354;44.724;11.284;2022-10-16T14:43:51;13.10;;;6.85;;
67508;SDS011;54354;44.724;11.284;2022-10-16T14:46:20;8.57;;;6.80;;
67508;SDS011;54354;44.724;11.284;2022-10-16T14:48:51;13.25;;;7.88;;
67508;SDS011;54354;44.724;11.284;2022-10-16T14:51:29;8.57;;;6.63;;
67508;SDS011;54354;44.724;11.284;2022-10-16T14:53:55;10.07;;;7.13;;
67508;SDS011;54354;44.724;11.284;2022-10-16T14:56:24;10.93;;;7.25;;
67508;SDS011;54354;44.724;11.284;2022-10-16T14:58:54;19.73;;;6.50;;
67508;SDS011;54354;44.724;11.284;2022-10-16T15:01:20;13.68;;;7.25;;
67508;SDS011;54354;44.724;11.284;2022-10-16T15:30:05;8.00;;;5.72;;
67508;SDS011;54354;44.724;11.284;2022-10-16T15:32:31;7.53;;;6.30;;
67508;SDS011;54354;44.724;11.284;2022-10-16T15:34:57;13.88;;;5.93;;
67508;SDS011;54354;44.724;11.284;2022-10-16T15:37:22;7.40;;;5.65;;
67508;SDS011;54354;44.724;11.284;2022-10-16T15:39:49;8.10;;;5.63;;
67508;SDS011;54354;44.724;11.284;2022-10-16T15:42:15;9.55;;;5.57;;
67508;SDS011;54354;44.724;11.284;2022-10-16T15:44:40;10.50;;;5.88;;
67508;SDS011;54354;44.724;11.284;2022-10-16T15:47:07;10.77;;;6.63;;
67508;SDS011;54354;44.724;11.284;2022-10-16T15:49:33;13.13;;;6.55;;
67508;SDS011;54354;44.724;11.284;2022-10-16T15:51:58;9.18;;;6.45;;
67508;SDS011;54354;44.724;11.284;2022-10-16T15:54:23;9.00;;;6.63;;
67508;SDS011;54354;44.724;11.284;2022-10-16T15:56:49;12.45;;;6.53;;
67508;SDS011;54354;44.724;11.284;2022-10-16T15:59:15;8.60;;;6.07;;
67508;SDS011;54354;44.724;11.284;2022-10-16T16:01:41;16.10;;;6.55;;
67508;SDS011;54354;44.724;11.284;2022-10-16T16:04:06;9.32;;;6.47;;
67508;SDS011;54354;44.724;11.284;2022-10-16T16:06:32;8.65;;;6.13;;
67508;SDS011;54354;44.724;11.284;2022-10-16T16:08:58;9.50;;;6.53;;
67508;SDS011;54354;44.724;11.284;2022-10-16T16:11:24;9.38;;;6.65;;
67508;SDS011;54354;44.724;11.284;2022-10-16T16:13:50;8.00;;;6.70;;
67508;SDS011;54354;44.724;11.284;2022-10-16T16:16:16;10.00;;;6.35;;
67508;SDS011;54354;44.724;11.284;2022-10-16T16:18:42;11.18;;;6.47;;
67508;SDS011;54354;44.724;11.284;2022-10-16T16:21:08;12.65;;;6.55;;
67508;SDS011;54354;44.724;11.284;2022-10-16T16:23:35;8.27;;;6.50;;
67508;SDS011;54354;44.724;11.284;2022-10-16T16:26:09;11.73;;;6.97;;
67508;SDS011;54354;44.724;11.284;2022-10-16T16:28:59;14.43;;;6.93;;
67508;SDS011;54354;44.724;11.284;2022-10-16T16:31:25;10.65;;;7.20;;
67508;SDS011;54354;44.724;11.284;2022-10-16T16:33:51;9.73;;;7.63;;
67508;SDS011;54354;44.724;11.284;2022-10-16T16:36:17;11.18;;;7.60;;
67508;SDS011;54354;44.724;11.284;2022-10-16T16:38:43;11.65;;;7.65;;
67508;SDS011;54354;44.724;11.284;2022-10-16T16:41:19;9.25;;;7.57;;
67508;SDS011;54354;44.724;11.284;2022-10-16T16:43:46;9.90;;;7.32;;
67508;SDS011;54354;44.724;11.284;2022-10-16T16:46:18;11.23;;;7.50;;
67508;SDS011;54354;44.724;11.284;2022-10-16T16:48:44;10.82;;;7.68;;
67508;SDS011;54354;44.724;11.284;2022-10-16T16:51:14;13.23;;;7.45;;
67508;SDS011;54354;44.724;11.284;2022-10-16T16:53:43;11.68;;;7.07;;
67508;SDS011;54354;44.724;11.284;2022-10-16T16:56:09;14.05;;;7.60;;
67508;SDS011;54354;44.724;11.284;2022-10-16T16:58:35;10.68;;;7.20;;
67508;SDS011;54354;44.724;11.284;2022-10-16T17:01:01;11.35;;;7.40;;
67508;SDS011;54354;44.724;11.284;2022-10-16T17:03:31;8.65;;;7.43;;
67508;SDS011;54354;44.724;11.284;2022-10-16T17:06:00;9.15;;;8.15;;
67508;SDS011;54354;44.724;11.284;2022-10-16T17:08:25;12.98;;;7.45;;
67508;SDS011;54354;44.724;11.284;2022-10-16T17:10:51;15.95;;;8.13;;